Time;durP1;ratioP1;P1;durP2;ratioP2;P2;SDS_P1;SDS_P2;PMS_P1;PMS_P2;Temp;Humidity;BMP_temperature;BMP_pressure;BME280_temperature;BME280_humidity;BME280_pressure;Samples;Min_cycle;Max_cycle;Signal;HPM_P1;HPM_P2
2021/03/15 00:00:25;;;;;;;5.85;5.35;;;1.60;97.80;;;;;;5035084;28;20383;-78
2021/03/15 00:02:56;;;;;;;6.63;6.00;;;1.60;97.70;;;;;;5051597;28;20048;-77
2021/03/15 00:05:23;;;;;;;6.10;4.65;;;1.60;97.70;;;;;;5052638;28;20056;-78
2021/03/15 00:07:51;;;;;;;5.55;4.97;;;1.60;97.60;;;;;;5051896;28;20060;-78
2021/03/15 00:10:18;;;;;;;6.43;5.85;;;1.70;97.90;;;;;;5052005;28;20044;-77
2021/03/15 00:12:46;;;;;;;4.53;4.10;;;1.60;97.80;;;;;;5031507;28;20049;-78
2021/03/15 00:15:20;;;;;;;5.60;5.10;;;1.60;97.60;;;;;;5031615;28;20045;-82
2021/03/15 00:17:48;;;;;;;5.50;4.90;;;1.60;97.70;;;;;;5032581;28;20060;-82
2021/03/15 00:20:17;;;;;;;6.20;4.35;;;1.70;97.60;;;;;;5032442;28;20052;-82
2021/03/15 00:22:46;;;;;;;6.05;5.00;;;1.70;97.50;;;;;;5032010;28;20060;-82
2021/03/15 00:25:15;;;;;;;3.92;3.63;;;1.70;97.40;;;;;;5015426;28;20064;-83
2021/03/15 00:27:46;;;;;;;7.40;5.38;;;1.70;97.60;;;;;;5032201;28;20045;-82
2021/03/15 00:30:16;;;;;;;6.20;4.80;;;1.70;97.40;;;;;;5032144;28;20045;-82
2021/03/15 00:32:49;;;;;;;4.82;4.43;;;1.70;97.90;;;;;;5031867;28;20057;-82
2021/03/15 00:35:18;;;;;;;5.95;5.35;;;1.70;97.60;;;;;;5014387;28;20390;-78
2021/03/15 00:37:49;;;;;;;5.63;4.95;;;1.70;97.30;;;;;;5031950;28;20053;-78
2021/03/15 00:40:22;;;;;;;4.70;4.28;;;1.70;97.70;;;;;;5031423;28;20521;-78
2021/03/15 00:42:51;;;;;;;6.00;4.28;;;1.70;97.80;;;;;;5031832;28;20037;-78
2021/03/15 00:45:24;;;;;;;5.53;5.03;;;1.70;97.40;;;;;;5030916;28;20054;-78
2021/03/15 00:47:52;;;;;;;5.05;4.50;;;1.70;97.50;;;;;;5030354;28;20068;-78
2021/03/15 00:50:31;;;;;;;5.30;4.72;;;1.70;97.70;;;;;;5031888;28;20044;-78
2021/03/15 00:53:01;;;;;;;8.10;4.53;;;1.70;97.60;;;;;;5014780;28;20064;-78
2021/03/15 00:55:29;;;;;;;8.18;5.95;;;1.70;97.50;;;;;;5031897;28;20049;-78
2021/03/15 00:57:57;;;;;;;5.55;5.05;;;1.80;97.60;;;;;;5031823;28;20056;-78
2021/03/15 01:00:36;;;;;;;5.28;4.80;;;1.70;97.70;;;;;;5031301;28;20565;-77
2021/03/15 01:03:13;;;;;;;6.45;4.95;;;1.70;97.80;;;;;;5045478;28;20046;-78
2021/03/15 01:05:48;;;;;;;;;;;1.70;97.90;;;;;;5032408;28;20521;-78
2021/03/15 01:08:36;;;;;;;6.27;5.23;;;1.70;97.80;;;;;;5026885;28;19921;-78
2021/03/15 01:11:08;;;;;;;5.93;5.43;;;1.80;97.90;;;;;;5049133;28;20610;-78
2021/03/15 01:13:38;;;;;;;7.00;5.30;;;1.70;97.80;;;;;;5051855;28;20049;-78
2021/03/15 01:16:07;;;;;;;5.88;5.32;;;1.70;97.90;;;;;;5033802;28;20045;-82
2021/03/15 01:18:36;;;;;;;6.20;4.63;;;1.80;97.80;;;;;;5051919;28;20041;-82
2021/03/15 01:21:04;;;;;;;6.50;5.85;;;1.70;97.90;;;;;;5051881;28;20048;-83
2021/03/15 01:23:32;;;;;;;5.28;4.78;;;1.70;97.70;;;;;;5051624;28;20049;-82
2021/03/15 01:25:59;;;;;;;6.30;5.70;;;1.70;97.80;;;;;;5051635;28;20383;-82
2021/03/15 01:28:26;;;;;;;6.97;6.47;;;1.70;97.80;;;;;;5052293;28;20064;-82
2021/03/15 01:30:56;;;;;;;6.13;5.38;;;1.70;97.70;;;;;;5051664;28;20049;-82
2021/03/15 01:33:24;;;;;;;6.90;6.25;;;1.70;98.00;;;;;;5051215;28;20053;-77
2021/03/15 01:35:51;;;;;;;6.65;5.95;;;1.60;98.10;;;;;;5050848;28;20041;-78
2021/03/15 01:38:20;;;;;;;7.50;6.88;;;1.50;98.50;;;;;;5051617;28;20044;-83
2021/03/15 01:40:48;;;;;;;9.75;6.13;;;1.50;98.60;;;;;;5051544;28;20057;-82
2021/03/15 01:43:15;;;;;;;7.07;6.38;;;1.50;98.40;;;;;;5051504;28;20037;-82
2021/03/15 01:45:43;;;;;;;7.13;6.43;;;1.50;98.50;;;;;;5050893;28;20049;-83
2021/03/15 01:48:13;;;;;;;6.15;5.30;;;1.50;98.60;;;;;;5020220;28;20512;-83
2021/03/15 01:50:47;;;;;;;6.85;5.75;;;1.50;98.70;;;;;;5055046;28;20037;-83
2021/03/15 01:53:17;;;;;;;7.05;6.15;;;1.60;98.60;;;;;;5037541;28;20056;-82
2021/03/15 01:55:48;;;;;;;5.90;5.40;;;1.40;98.60;;;;;;5053362;28;20053;-78
2021/03/15 01:58:16;;;;;;;9.50;8.52;;;1.60;98.70;;;;;;5053429;28;20037;-78
2021/03/15 02:00:44;;;;;;;10.60;7.40;;;1.60;98.40;;;;;;5069162;28;20057;-78
2021/03/15 02:03:18;;;;;;;7.53;6.57;;;1.50;98.50;;;;;;5036787;28;20071;-83
2021/03/15 02:05:45;;;;;;;7.25;6.40;;;1.50;98.60;;;;;;5069027;28;20048;-83
2021/03/15 02:08:15;;;;;;;7.10;6.40;;;1.40;98.60;;;;;;5037188;28;20045;-83
2021/03/15 02:10:43;;;;;;;8.07;7.20;;;1.30;98.90;;;;;;5054699;28;20052;-83
2021/03/15 02:13:13;;;;;;;7.07;6.28;;;1.40;98.70;;;;;;5055095;28;20061;-83
2021/03/15 02:16:15;;;;;;;7.70;6.65;;;1.30;98.70;;;;;;5020098;28;20048;-80
2021/03/15 02:19:06;;;;;;;7.03;6.32;;;1.30;98.90;;;;;;5054882;28;20051;-83
2021/03/15 02:22:04;;;;;;;10.15;6.00;;;1.30;98.90;;;;;;5037152;28;20519;-83
2021/03/15 02:24:36;;;;;;;7.97;6.93;;;1.30;98.90;;;;;;5051417;28;20048;-82
2021/03/15 02:27:04;;;;;;;7.85;6.43;;;1.30;98.80;;;;;;5054461;28;20037;-83
2021/03/15 02:30:18;;;;;;;7.55;6.40;;;1.20;98.70;;;;;;5036686;28;20397;-83
2021/03/15 02:33:30;;;;;;;7.43;6.63;;;1.20;98.60;;;;;;5052320;28;20037;-82
2021/03/15 02:36:00;;;;;;;7.20;6.47;;;1.20;98.80;;;;;;5054132;28;20044;-83
2021/03/15 02:38:34;;;;;;;8.10;6.53;;;1.20;98.90;;;;;;5054051;28;20052;-82
2021/03/15 02:41:03;;;;;;;9.65;6.93;;;1.20;98.70;;;;;;5054184;28;20061;-83
2021/03/15 02:43:57;;;;;;;8.43;7.15;;;1.20;98.60;;;;;;5053624;28;20041;-78
2021/03/15 02:46:29;;;;;;;7.15;6.40;;;1.20;98.60;;;;;;5053302;28;20465;-78
2021/03/15 02:49:03;;;;;;;10.05;6.78;;;1.30;98.60;;;;;;5053301;28;20045;-78
2021/03/15 02:51:34;;;;;;;7.85;6.95;;;1.20;98.60;;;;;;5034523;28;20044;-78
2021/03/15 02:54:05;;;;;;;7.95;7.18;;;1.10;98.60;;;;;;5053899;28;20064;-81
2021/03/15 02:56:38;;;;;;;7.43;6.22;;;1.10;98.80;;;;;;5069777;28;20056;-83
2021/03/15 02:59:06;;;;;;;8.52;5.57;;;1.10;98.70;;;;;;5035919;28;20075;-83
2021/03/15 03:01:36;;;;;;;6.82;6.13;;;1.10;98.80;;;;;;5053851;28;20061;-83
2021/03/15 03:04:06;;;;;;;8.48;6.40;;;1.10;98.90;;;;;;5053828;28;20123;-83
2021/03/15 03:06:36;;;;;;;7.78;6.60;;;1.10;98.80;;;;;;5035572;28;20066;-83
2021/03/15 03:09:10;;;;;;;8.77;7.47;;;1.30;98.80;;;;;;5049299;28;20053;-78
2021/03/15 03:11:38;;;;;;;9.65;8.32;;;1.20;98.70;;;;;;5052929;28;20048;-78
2021/03/15 03:14:13;;;;;;;10.75;7.95;;;1.30;98.50;;;;;;5053525;28;20409;-79
2021/03/15 03:16:41;;;;;;;11.93;6.90;;;1.30;98.40;;;;;;5054011;28;20060;-83
2021/03/15 03:19:14;;;;;;;7.68;5.97;;;1.40;98.40;;;;;;5035808;28;20095;-83
2021/03/15 03:21:42;;;;;;;8.88;7.97;;;1.30;98.60;;;;;;5035965;28;20124;-83
2021/03/15 03:24:14;;;;;;;9.23;8.25;;;1.30;98.60;;;;;;5035619;28;20044;-82
2021/03/15 03:26:44;;;;;;;8.35;7.22;;;1.30;98.70;;;;;;5019383;28;20052;-78
2021/03/15 03:29:17;;;;;;;8.45;6.88;;;1.30;98.50;;;;;;5036147;28;20056;-78
2021/03/15 03:31:47;;;;;;;11.35;7.60;;;1.30;98.70;;;;;;5052809;28;20040;-83
2021/03/15 03:34:14;;;;;;;8.52;7.38;;;1.30;98.40;;;;;;5034663;28;20044;-82
2021/03/15 03:36:43;;;;;;;8.38;7.00;;;1.40;98.20;;;;;;5035683;28;20732;-83
2021/03/15 03:39:11;;;;;;;7.93;6.13;;;1.40;98.10;;;;;;5052748;28;20053;-83
2021/03/15 03:41:40;;;;;;;15.52;7.97;;;1.40;98.10;;;;;;5053273;28;20486;-83
2021/03/15 03:44:43;;;;;;;7.82;7.07;;;1.40;97.90;;;;;;5052750;28;20044;-82
2021/03/15 03:47:11;;;;;;;7.30;6.60;;;1.40;98.00;;;;;;5052483;28;20045;-78
2021/03/15 03:49:38;;;;;;;7.13;6.38;;;1.40;98.00;;;;;;5053977;28;20060;-83
2021/03/15 03:52:07;;;;;;;9.90;6.35;;;1.40;98.30;;;;;;5033524;28;20041;-78
2021/03/15 03:54:49;;;;;;;8.88;6.65;;;1.40;98.10;;;;;;5052660;28;20099;-78
2021/03/15 03:57:23;;;;;;;12.38;8.50;;;1.40;98.20;;;;;;5053139;28;20052;-78
2021/03/15 03:59:53;;;;;;;8.63;6.68;;;1.40;98.00;;;;;;5052569;28;20056;-83
2021/03/15 04:02:24;;;;;;;7.68;5.88;;;1.30;98.10;;;;;;5035004;28;20033;-83
2021/03/15 04:05:03;;;;;;;7.47;5.85;;;1.40;98.00;;;;;;5052345;28;20075;-82
2021/03/15 04:07:33;;;;;;;7.75;5.20;;;1.50;97.90;;;;;;5033427;28;20052;-83
2021/03/15 04:10:06;;;;;;;7.43;6.68;;;1.50;97.90;;;;;;5051720;28;20513;-83
2021/03/15 04:12:36;;;;;;;6.53;5.80;;;1.50;97.80;;;;;;5031989;28;20061;-83
2021/03/15 04:15:43;;;;;;;6.88;5.32;;;1.50;98.00;;;;;;5046838;28;20720;-83
2021/03/15 04:18:13;;;;;;;9.20;5.65;;;1.40;98.00;;;;;;5067748;28;20346;-83
2021/03/15 04:20:43;;;;;;;8.10;6.50;;;1.40;97.90;;;;;;5018562;28;20044;-83
2021/03/15 04:23:18;;;;;;;6.65;5.43;;;1.50;97.60;;;;;;5047024;28;20049;-84
2021/03/15 04:25:48;;;;;;;9.00;6.63;;;1.50;97.50;;;;;;5053054;28;20053;-82
2021/03/15 04:28:19;;;;;;;5.35;4.85;;;1.50;97.60;;;;;;5018211;28;20056;-83
2021/03/15 04:30:47;;;;;;;11.32;5.50;;;1.50;97.70;;;;;;5050926;28;20049;-83
2021/03/15 04:33:15;;;;;;;13.82;6.43;;;1.40;98.00;;;;;;5050446;28;20057;-78
2021/03/15 04:35:44;;;;;;;9.07;7.88;;;1.30;98.50;;;;;;5033820;28;20049;-78
2021/03/15 04:38:12;;;;;;;9.15;6.47;;;1.20;98.60;;;;;;5067242;28;20045;-83
2021/03/15 04:40:45;;;;;;;7.15;5.35;;;1.30;98.80;;;;;;5052131;28;20053;-84
2021/03/15 04:43:17;;;;;;;12.27;7.07;;;1.20;98.90;;;;;;5034019;28;20044;-84
2021/03/15 04:45:47;;;;;;;8.40;6.00;;;1.20;98.90;;;;;;5051346;28;20040;-83
2021/03/15 04:48:42;;;;;;;8.32;5.18;;;1.20;98.90;;;;;;5033838;28;20735;-83
2021/03/15 04:51:12;;;;;;;7.65;5.60;;;1.20;98.90;;;;;;5033505;28;20120;-83
2021/03/15 04:53:40;;;;;;;7.53;5.65;;;1.20;99.00;;;;;;5051209;28;20517;-83
2021/03/15 04:56:14;;;;;;;8.10;5.22;;;1.20;99.00;;;;;;5017790;28;20060;-83
2021/03/15 04:58:49;;;;;;;5.53;5.00;;;1.10;99.10;;;;;;5050207;28;20045;-83
2021/03/15 05:01:19;;;;;;;6.15;5.05;;;1.10;99.30;;;;;;5050941;28;20049;-84
2021/03/15 05:03:50;;;;;;;6.80;5.70;;;1.00;99.40;;;;;;5067062;28;20045;-78
2021/03/15 05:06:19;;;;;;;6.35;5.70;;;1.00;99.20;;;;;;5051603;28;20044;-78
2021/03/15 05:08:49;;;;;;;5.93;5.28;;;1.10;99.20;;;;;;5051709;28;20056;-78
2021/03/15 05:11:20;;;;;;;5.97;5.38;;;1.10;99.30;;;;;;5051654;28;20501;-83
2021/03/15 05:13:52;;;;;;;10.43;6.60;;;1.10;99.30;;;;;;5051133;28;20045;-84
2021/03/15 05:16:20;;;;;;;10.48;6.65;;;1.00;99.40;;;;;;5051592;28;20038;-84
2021/03/15 05:18:52;;;;;;;7.40;5.80;;;1.10;99.50;;;;;;5049700;28;20045;-83
2021/03/15 05:21:21;;;;;;;;;;;1.10;99.40;;;;;;5051583;28;20052;-83
2021/03/15 05:23:55;;;;;;;8.82;5.13;;;1.10;99.40;;;;;;5037364;28;20691;-83
2021/03/15 05:26:23;;;;;;;5.78;4.45;;;1.10;99.50;;;;;;5055661;28;20037;-78
2021/03/15 05:28:52;;;;;;;6.93;5.22;;;1.20;99.30;;;;;;5054869;28;20393;-78
2021/03/15 05:31:23;;;;;;;9.10;6.22;;;1.10;99.40;;;;;;5055105;28;20044;-83
2021/03/15 05:33:52;;;;;;;5.57;4.90;;;1.10;99.20;;;;;;5054211;28;20052;-82
2021/03/15 05:36:20;;;;;;;8.13;6.15;;;1.10;99.20;;;;;;5055600;28;20053;-82
2021/03/15 05:38:48;;;;;;;9.35;6.05;;;1.10;99.10;;;;;;5054394;28;20056;-83
2021/03/15 05:41:16;;;;;;;6.72;6.00;;;1.20;98.90;;;;;;5020836;28;20505;-82
2021/03/15 05:44:32;;;;;;;10.77;5.95;;;1.20;99.00;;;;;;5036798;28;20126;-83
2021/03/15 05:47:15;;;;;;;7.88;4.88;;;1.20;99.00;;;;;;5026244;28;20037;-85
2021/03/15 05:50:11;;;;;;;5.15;4.68;;;1.20;99.00;;;;;;5036526;28;20045;-78
2021/03/15 05:53:04;;;;;;;5.80;5.13;;;1.20;98.80;;;;;;5047822;28;20041;-80
2021/03/15 05:55:37;;;;;;;6.55;4.63;;;1.20;98.80;;;;;;5020382;28;20041;-87
2021/03/15 05:58:32;;;;;;;6.60;4.93;;;1.20;99.00;;;;;;5033152;28;20076;-83
2021/03/15 06:01:25;;;;;;;6.25;4.07;;;1.20;98.70;;;;;;5048755;28;20047;-87
2021/03/15 06:04:23;;;;;;;8.98;6.38;;;1.20;98.70;;;;;;5032414;28;20048;-85
2021/03/15 06:06:53;;;;;;;5.50;4.90;;;1.30;98.40;;;;;;5014432;28;20052;-85
2021/03/15 06:09:28;;;;;;;9.73;6.43;;;1.20;98.20;;;;;;5067373;28;20809;-85
2021/03/15 06:12:01;;;;;;;15.77;8.25;;;1.20;98.50;;;;;;5034356;28;20037;-85
2021/03/15 06:14:30;;;;;;;6.40;5.25;;;1.20;98.50;;;;;;5017113;28;20042;-84
2021/03/15 06:16:58;;;;;;;6.30;5.70;;;1.20;98.40;;;;;;5032375;28;20050;-85
2021/03/15 06:19:26;;;;;;;8.82;5.07;;;1.20;98.30;;;;;;5035395;28;20045;-84
2021/03/15 06:21:55;;;;;;;6.88;6.28;;;1.20;98.20;;;;;;5054114;28;20564;-84
2021/03/15 06:24:23;;;;;;;8.32;5.10;;;1.20;98.30;;;;;;5070547;28;20056;-86
2021/03/15 06:26:51;;;;;;;5.90;5.30;;;1.30;98.30;;;;;;5036502;28;20375;-86
2021/03/15 06:29:18;;;;;;;5.63;5.15;;;1.30;98.10;;;;;;5053178;28;20041;-85
2021/03/15 06:31:50;;;;;;;5.78;4.80;;;1.30;98.00;;;;;;5019876;28;20076;-86
2021/03/15 06:34:22;;;;;;;5.10;4.70;;;1.40;97.70;;;;;;5052027;28;20037;-86
2021/03/15 06:36:49;;;;;;;5.10;4.70;;;1.40;97.50;;;;;;5047963;28;20072;-86
2021/03/15 06:39:19;;;;;;;7.22;5.07;;;1.50;97.10;;;;;;5048595;28;20699;-86
2021/03/15 06:41:49;;;;;;;5.80;4.72;;;1.50;97.30;;;;;;5016010;28;20045;-79
2021/03/15 06:44:17;;;;;;;4.95;4.53;;;1.60;97.50;;;;;;5015854;28;20123;-79
2021/03/15 06:46:45;;;;;;;7.25;4.75;;;1.70;96.60;;;;;;5014943;28;20049;-79
2021/03/15 06:49:13;;;;;;;16.75;5.20;;;2.00;96.00;;;;;;5012493;28;20045;-79
2021/03/15 06:52:00;;;;;;;5.00;4.43;;;2.20;95.20;;;;;;5023641;28;20049;-80
2021/03/15 06:54:28;;;;;;;5.32;4.82;;;2.50;94.50;;;;;;5032334;28;20044;-79
2021/03/15 06:57:31;;;;;;;5.57;4.53;;;2.90;93.40;;;;;;5050743;28;20410;-80
2021/03/15 07:00:01;;;;;;;4.30;3.75;;;3.30;92.10;;;;;;4938257;28;20042;-79
2021/03/15 07:02:32;;;;;;;5.00;3.78;;;3.70;91.70;;;;;;5015766;28;20076;-79
2021/03/15 07:05:09;;;;;;;3.40;3.10;;;3.60;91.30;;;;;;5030173;28;20044;-80
2021/03/15 07:07:39;;;;;;;4.68;4.20;;;3.70;90.70;;;;;;5049711;28;20037;-80
2021/03/15 07:10:18;;;;;;;3.40;3.10;;;3.70;90.10;;;;;;5035238;28;20083;-80
2021/03/15 07:12:47;;;;;;;4.78;4.38;;;3.80;91.50;;;;;;5036229;28;20053;-81
2021/03/15 07:15:21;;;;;;;6.35;3.63;;;4.10;90.90;;;;;;5051558;28;20489;-81
2021/03/15 07:17:49;;;;;;;4.10;3.67;;;4.00;89.60;;;;;;5052438;28;20060;-86
2021/03/15 07:20:16;;;;;;;3.75;3.35;;;4.00;91.40;;;;;;5051946;28;20056;-86
2021/03/15 07:22:45;;;;;;;4.40;4.10;;;3.80;90.90;;;;;;5050895;28;20067;-86
2021/03/15 07:25:18;;;;;;;3.15;2.85;;;3.50;90.70;;;;;;5052250;28;20056;-86
2021/03/15 07:27:50;;;;;;;2.92;2.55;;;3.80;90.30;;;;;;5052028;28;20049;-86
2021/03/15 07:30:31;;;;;;;3.42;2.95;;;4.10;86.80;;;;;;5019047;28;20041;-86
2021/03/15 07:33:05;;;;;;;2.75;2.55;;;4.10;90.20;;;;;;5065098;28;20664;-86
2021/03/15 07:35:38;;;;;;;3.67;2.75;;;4.20;88.60;;;;;;5038697;28;20064;-86
2021/03/15 07:38:06;;;;;;;3.50;3.30;;;4.20;89.30;;;;;;5055074;28;20056;-85
2021/03/15 07:40:47;;;;;;;3.65;3.35;;;3.90;87.30;;;;;;5036128;28;20056;-87
2021/03/15 07:43:23;;;;;;;3.03;2.78;;;3.90;87.10;;;;;;5015469;28;20045;-87
2021/03/15 07:46:29;;;;;;;3.97;2.63;;;3.80;90.00;;;;;;4999054;28;20375;-85
2021/03/15 07:49:00;;;;;;;6.03;3.20;;;3.60;91.60;;;;;;5015854;28;20060;-85
2021/03/15 07:51:36;;;;;;;4.15;3.28;;;3.40;91.40;;;;;;5030219;28;20045;-86
2021/03/15 07:54:13;;;;;;;3.80;3.45;;;3.30;91.80;;;;;;5023591;28;20045;-86
2021/03/15 07:56:44;;;;;;;6.82;3.28;;;3.60;91.20;;;;;;5035698;28;20049;-86
2021/03/15 07:59:13;;;;;;;7.35;3.17;;;4.10;87.50;;;;;;5051597;28;20056;-86
2021/03/15 08:01:42;;;;;;;3.05;2.85;;;4.10;86.80;;;;;;5034685;28;20049;-86
2021/03/15 08:04:10;;;;;;;6.57;2.80;;;4.10;89.50;;;;;;5066240;28;20041;-86
2021/03/15 08:06:37;;;;;;;5.43;3.63;;;3.90;87.30;;;;;;5013779;28;20057;-86
2021/03/15 08:09:05;;;;;;;5.47;3.00;;;4.00;89.20;;;;;;5031162;28;20159;-85
2021/03/15 08:11:34;;;;;;;2.60;2.40;;;3.70;90.00;;;;;;5037763;28;20048;-86
2021/03/15 08:14:12;;;;;;;3.85;2.50;;;3.90;90.20;;;;;;5018434;28;20529;-87
2021/03/15 08:16:41;;;;;;;5.95;2.85;;;4.00;90.00;;;;;;5018048;28;20063;-87
2021/03/15 08:19:11;;;;;;;4.60;2.55;;;3.70;91.30;;;;;;5050493;28;20045;-86
2021/03/15 08:21:38;;;;;;;6.28;3.22;;;3.80;90.30;;;;;;5032914;28;20052;-86
2021/03/15 08:24:07;;;;;;;3.30;3.00;;;3.80;90.80;;;;;;5034264;28;20900;-87
2021/03/15 08:26:38;;;;;;;3.10;2.80;;;3.70;90.40;;;;;;5017869;28;20048;-86
2021/03/15 08:29:06;;;;;;;5.20;3.15;;;3.50;90.90;;;;;;5017847;28;20056;-85
2021/03/15 08:31:43;;;;;;;5.82;4.35;;;3.40;90.90;;;;;;5049427;28;20053;-89
2021/03/15 08:34:12;;;;;;;2.25;2.05;;;3.30;91.00;;;;;;5017339;28;21556;-82
2021/03/15 08:36:45;;;;;;;2.83;2.45;;;3.30;91.80;;;;;;5051891;28;20050;-84
2021/03/15 08:39:32;;;;;;;;;;;3.40;90.70;;;;;;5052209;28;20076;-83
2021/03/15 08:42:08;;;;;;;4.93;2.38;;;3.40;92.00;;;;;;5001269;28;19920;-79
2021/03/15 08:44:57;;;;;;;5.05;3.28;;;3.60;90.20;;;;;;5052953;28;20062;-83
2021/03/15 08:47:50;;;;;;;2.60;2.40;;;3.80;91.10;;;;;;5031851;28;20045;-82
2021/03/15 08:50:34;;;;;;;3.67;2.45;;;3.80;90.60;;;;;;5041711;28;20029;-82
2021/03/15 08:53:02;;;;;;;2.58;2.30;;;3.70;90.10;;;;;;5016861;28;20045;-82
2021/03/15 08:55:42;;;;;;;2.50;2.05;;;3.70;92.00;;;;;;5018309;28;20053;-83
2021/03/15 08:58:34;;;;;;;3.15;2.85;;;3.70;90.40;;;;;;5021140;28;21524;-82
2021/03/15 09:01:08;;;;;;;7.63;2.42;;;3.90;91.40;;;;;;5018275;28;20053;-82
2021/03/15 09:03:57;;;;;;;2.38;2.17;;;3.70;91.50;;;;;;5015431;28;20068;-82
2021/03/15 09:06:33;;;;;;;3.10;2.80;;;3.60;90.70;;;;;;5016096;28;20574;-82
2021/03/15 09:09:02;;;;;;;2.60;2.35;;;3.60;91.20;;;;;;5043345;28;20132;-83
2021/03/15 09:11:38;;;;;;;3.60;2.10;;;3.60;92.30;;;;;;5020827;28;20061;-83
2021/03/15 09:14:17;;;;;;;3.53;2.70;;;3.80;92.20;;;;;;5037488;28;20057;-82
2021/03/15 09:16:48;;;;;;;2.38;2.15;;;3.80;92.40;;;;;;5037749;28;20757;-81
2021/03/15 09:19:20;;;;;;;1.85;1.75;;;3.80;90.60;;;;;;5054304;28;20048;-83
2021/03/15 09:21:55;;;;;;;3.03;1.90;;;3.60;92.70;;;;;;5019993;28;20064;-82
2021/03/15 09:24:45;;;;;;;2.20;2.00;;;3.40;92.80;;;;;;5035104;28;20382;-82
2021/03/15 09:27:34;;;;;;;2.40;2.20;;;3.30;92.80;;;;;;5033242;28;20053;-83
2021/03/15 09:30:21;;;;;;;2.70;2.50;;;3.30;93.40;;;;;;5017884;28;20513;-82
2021/03/15 09:32:55;;;;;;;5.13;2.85;;;3.40;95.40;;;;;;5001458;28;20049;-83
2021/03/15 09:35:42;;;;;;;2.67;2.47;;;3.60;94.70;;;;;;5017380;28;20056;-83
2021/03/15 09:38:11;;;;;;;2.25;2.13;;;3.80;94.50;;;;;;5033717;28;20068;-83
2021/03/15 09:40:40;;;;;;;2.10;1.75;;;3.80;93.30;;;;;;5050141;28;20065;-83
2021/03/15 09:43:28;;;;;;;4.78;2.30;;;3.80;91.80;;;;;;5035166;28;20060;-83
2021/03/15 09:46:28;;;;;;;2.00;1.90;;;3.70;92.10;;;;;;5016095;28;20475;-83
2021/03/15 09:48:57;;;;;;;4.53;2.35;;;3.60;91.20;;;;;;5017203;28;20057;-83
2021/03/15 09:51:26;;;;;;;2.25;1.98;;;3.50;91.90;;;;;;5044081;28;20048;-83
2021/03/15 09:54:14;;;;;;;2.58;2.13;;;3.60;92.50;;;;;;5036593;28;20044;-83
2021/03/15 09:57:00;;;;;;;1.95;1.85;;;3.90;92.90;;;;;;5037074;28;20505;-83
2021/03/15 09:59:41;;;;;;;2.33;2.22;;;4.00;91.10;;;;;;5036986;28;20409;-83
2021/03/15 10:02:09;;;;;;;3.00;1.75;;;3.70;91.10;;;;;;5019915;28;20056;-84
2021/03/15 10:04:56;;;;;;;1.77;1.63;;;3.60;92.10;;;;;;5054002;28;20061;-83
2021/03/15 10:07:47;;;;;;;2.80;1.58;;;3.70;92.40;;;;;;5021623;28;20423;-83
2021/03/15 10:10:46;;;;;;;1.67;1.58;;;3.60;91.90;;;;;;5017456;28;20513;-84
2021/03/15 10:13:58;;;;;;;1.55;1.45;;;3.70;92.50;;;;;;4995337;28;20098;-84
2021/03/15 10:16:58;;;;;;;1.77;1.67;;;3.50;93.80;;;;;;4990933;28;20048;-84
2021/03/15 10:19:53;;;;;;;4.10;1.83;;;3.40;92.10;;;;;;5015080;28;20517;-84
2021/03/15 10:22:21;;;;;;;2.42;1.77;;;3.40;91.90;;;;;;5019178;28;20033;-84
2021/03/15 10:24:56;;;;;;;1.83;1.73;;;3.40;92.20;;;;;;5020233;28;20049;-84
2021/03/15 10:27:31;;;;;;;4.18;1.88;;;3.50;90.50;;;;;;5033916;28;20063;-84
2021/03/15 10:30:17;;;;;;;1.98;1.58;;;3.50;92.20;;;;;;5035361;28;20053;-84
2021/03/15 10:32:47;;;;;;;1.45;1.35;;;3.50;91.30;;;;;;5035906;28;20049;-84
2021/03/15 10:35:18;;;;;;;1.05;1.05;;;3.50;91.70;;;;;;5052881;28;20049;-84
2021/03/15 10:37:57;;;;;;;3.17;1.52;;;3.50;92.30;;;;;;5019161;28;20044;-83
2021/03/15 10:40:31;;;;;;;1.65;1.55;;;3.50;92.50;;;;;;5020001;28;20052;-83
2021/03/15 10:43:05;;;;;;;1.38;1.27;;;3.60;93.50;;;;;;5036317;28;20520;-83
2021/03/15 10:45:39;;;;;;;1.50;1.42;;;3.60;91.50;;;;;;5019556;28;20398;-83
2021/03/15 10:48:10;;;;;;;1.83;1.73;;;3.50;91.90;;;;;;5035347;28;20041;-83
2021/03/15 10:50:55;;;;;;;2.30;1.67;;;3.60;92.30;;;;;;5035344;28;20037;-83
2021/03/15 10:53:50;;;;;;;1.40;1.30;;;3.60;92.70;;;;;;5019723;28;20048;-85
2021/03/15 10:56:24;;;;;;;1.65;1.55;;;3.70;93.20;;;;;;5052666;28;20600;-82
2021/03/15 10:59:05;;;;;;;2.33;2.10;;;3.60;92.10;;;;;;5035210;28;20060;-82
2021/03/15 11:01:41;;;;;;;1.17;1.17;;;3.50;92.90;;;;;;5006647;28;20049;-83
2021/03/15 11:04:20;;;;;;;1.50;1.40;;;3.50;92.70;;;;;;5019145;28;20052;-84
2021/03/15 11:06:56;;;;;;;1.83;1.73;;;3.50;94.70;;;;;;5018862;28;20044;-85
2021/03/15 11:09:55;;;;;;;1.33;1.23;;;3.50;94.10;;;;;;5022553;28;20745;-81
2021/03/15 11:12:47;;;;;;;1.67;1.58;;;3.40;94.30;;;;;;5028414;28;20051;-83
2021/03/15 11:15:33;;;;;;;2.00;1.90;;;3.50;94.30;;;;;;5033470;28;20134;-83
2021/03/15 11:18:19;;;;;;;2.42;2.22;;;3.60;94.40;;;;;;5015590;28;20053;-83
2021/03/15 11:20:58;;;;;;;1.50;1.40;;;3.70;94.30;;;;;;5014217;28;20057;-83
2021/03/15 11:23:51;;;;;;;4.78;1.50;;;3.70;93.10;;;;;;5058961;28;20202;-83
2021/03/15 11:26:47;;;;;;;1.65;1.55;;;3.90;94.80;;;;;;5018119;28;20045;-84
2021/03/15 11:29:35;;;;;;;1.83;1.50;;;3.90;92.60;;;;;;5046982;28;20065;-84
2021/03/15 11:32:10;;;;;;;2.47;2.20;;;3.80;93.70;;;;;;5047591;28;20442;-84
2021/03/15 11:34:48;;;;;;;3.90;2.05;;;3.70;94.50;;;;;;4998820;28;20380;-83
2021/03/15 11:37:28;;;;;;;1.90;1.80;;;3.90;95.90;;;;;;5045249;28;20060;-84
2021/03/15 11:40:06;;;;;;;1.60;1.50;;;3.90;93.70;;;;;;5014649;28;20048;-83
2021/03/15 11:42:53;;;;;;;2.08;1.98;;;3.80;94.10;;;;;;5028178;28;20399;-83
2021/03/15 11:45:23;;;;;;;1.45;1.42;;;3.90;95.00;;;;;;5036205;28;20056;-84
2021/03/15 11:47:53;;;;;;;1.83;1.70;;;3.90;94.70;;;;;;5028652;28;20076;-82
2021/03/15 11:50:43;;;;;;;1.53;1.43;;;4.00;94.60;;;;;;5062313;28;20049;-82
2021/03/15 11:53:22;;;;;;;2.13;1.92;;;4.00;95.00;;;;;;5028348;28;20049;-82
2021/03/15 11:55:50;;;;;;;1.50;1.40;;;3.80;94.20;;;;;;5029912;28;20044;-84
2021/03/15 11:58:18;;;;;;;1.40;1.35;;;3.70;95.00;;;;;;5029681;28;20040;-83
2021/03/15 12:00:53;;;;;;;1.20;1.20;;;3.70;95.00;;;;;;5016365;28;20048;-88
2021/03/15 12:04:10;;;;;;;;;;;3.70;95.10;;;;;;5048002;28;20044;-87
2021/03/15 12:07:14;;;;;;;11.32;2.35;;;3.60;95.80;;;;;;5008552;28;19921;-85
2021/03/15 12:10:39;;;;;;;;;;;;;;;;;;;;;
2021/03/15 12:13:20;;;;;;;1.13;1.00;;;3.50;95.20;;;;;;4939966;28;20058;-88
2021/03/15 12:16:01;;;;;;;1.55;1.45;;;3.70;94.50;;;;;;4940094;28;20047;-88
2021/03/15 12:19:14;;;;;;;;;;;;;;;;;;;;;
2021/03/15 12:22:43;;;;;;;2.30;1.27;;;3.70;93.60;;;;;;5020089;28;20060;-92
2021/03/15 12:25:18;;;;;;;1.00;1.00;;;3.60;95.20;;;;;;5007848;28;20045;-85
2021/03/15 12:28:04;;;;;;;1.20;1.20;;;3.60;94.80;;;;;;5019980;28;20509;-83
2021/03/15 12:31:31;;;;;;;;;;;;;;;;;;;;;
2021/03/15 12:34:00;;;;;;;1.23;1.13;;;3.40;96.20;;;;;;5046587;28;20045;-86
2021/03/15 12:36:49;;;;;;;1.48;1.38;;;3.30;95.90;;;;;;5033315;28;20061;-87
2021/03/15 12:39:40;;;;;;;1.42;1.38;;;3.50;97.00;;;;;;5065376;28;20056;-84
2021/03/15 12:42:23;;;;;;;1.48;1.38;;;3.30;96.20;;;;;;5033916;28;20095;-83
2021/03/15 12:45:20;;;;;;;2.08;1.40;;;3.10;95.90;;;;;;5026801;28;20133;-84
2021/03/15 12:48:09;;;;;;;1.42;1.33;;;3.20;96.70;;;;;;5043639;28;20045;-84
2021/03/15 12:51:17;;;;;;;1.73;1.63;;;3.00;96.30;;;;;;5054422;28;20041;-87
2021/03/15 12:54:24;;;;;;;;;;;;;;;;;;;;;
2021/03/15 12:57:06;;;;;;;1.42;1.30;;;3.00;96.90;;;;;;5065081;28;20045;-83
2021/03/15 12:59:57;;;;;;;1.40;1.30;;;3.20;97.10;;;;;;5039642;28;20497;-86
2021/03/15 13:02:43;;;;;;;1.55;1.45;;;3.30;96.70;;;;;;5040505;28;20050;-86
2021/03/15 13:05:12;;;;;;;1.15;1.15;;;3.40;97.10;;;;;;4998949;28;20054;-84
2021/03/15 13:21:48;;;;;;;;;;;;;;;;;;;;;
2021/03/15 13:25:49;;;;;;;1.95;1.85;;;3.00;97.70;;;;;;4982831;28;20519;-88
2021/03/15 13:34:54;;;;;;;1.60;1.50;;;2.80;98.40;;;;;;4968054;28;20034;-88
2021/03/15 13:37:31;;;;;;;4.10;1.00;;;2.80;98.00;;;;;;5002357;28;20054;-86
2021/03/15 13:40:59;;;;;;;1.75;1.65;;;2.90;98.50;;;;;;4960030;28;20519;-87
2021/03/15 13:43:40;;;;;;;3.10;1.88;;;3.00;98.40;;;;;;4973799;28;20046;-89
2021/03/15 13:46:14;;;;;;;1.80;1.70;;;3.00;98.30;;;;;;5042966;28;20067;-85
2021/03/15 13:49:17;;;;;;;2.20;2.10;;;3.00;98.20;;;;;;5037005;28;20060;-87
2021/03/15 13:52:32;;;;;;;;;;;;;;;;;;;;;
2021/03/15 13:55:50;;;;;;;;;;;;;;;;;;;;;
2021/03/15 13:59:19;;;;;;;2.00;1.90;;;3.20;99.10;;;;;;5062627;28;20045;-89
2021/03/15 14:02:57;;;;;;;2.78;2.58;;;3.40;98.20;;;;;;5033612;28;20053;-88
2021/03/15 14:06:15;;;;;;;2.28;2.08;;;3.30;99.50;;;;;;5043552;28;20048;-88
2021/03/15 14:08:43;;;;;;;2.22;2.03;;;3.40;98.80;;;;;;5020046;28;20092;-85
2021/03/15 14:11:12;;;;;;;2.72;2.60;;;3.40;98.30;;;;;;5005570;28;20052;-84
2021/03/15 14:14:17;;;;;;;2.00;1.90;;;3.40;98.00;;;;;;5037982;28;20080;-87
2021/03/15 14:17:04;;;;;;;2.65;2.45;;;3.40;98.40;;;;;;5009851;28;20418;-89
2021/03/15 14:19:52;;;;;;;2.38;2.28;;;3.30;98.20;;;;;;5026408;28;20041;-88
2021/03/15 14:22:41;;;;;;;2.50;2.30;;;3.30;98.20;;;;;;5006375;28;20569;-86
2021/03/15 14:25:37;;;;;;;;;;;;;;;;;;;;;